sensor_id;sensor_type;location;lat;lon;timestamp;P1;durP1;ratioP1;P2;durP2;ratioP2
3309;SDS011;1667;53.238;10.394;2024-01-15T00:01:33;3.73;;;1.43;;
3309;SDS011;1667;53.238;10.394;2024-01-15T00:06:32;5.57;;;1.67;;
3309;SDS011;1667;53.238;10.394;2024-01-15T00:11:33;1.93;;;0.83;;
3309;SDS011;1667;53.238;10.394;2024-01-15T00:16:32;2.60;;;1.00;;
3309;SDS011;1667;53.238;10.394;2024-01-15T00:21:31;2.03;;;1.33;;
3309;SDS011;1667;53.238;10.394;2024-01-15T00:26:29;4.17;;;1.93;;
3309;SDS011;1667;53.238;10.394;2024-01-15T00:31:30;2.93;;;1.10;;
3309;SDS011;1667;53.238;10.394;2024-01-15T00:36:29;2.00;;;1.43;;
3309;SDS011;1667;53.238;10.394;2024-01-15T00:41:28;2.47;;;1.40;;
3309;SDS011;1667;53.238;10.394;2024-01-15T00:46:27;2.40;;;1.10;;
3309;SDS011;1667;53.238;10.394;2024-01-15T00:51:28;1.73;;;1.23;;
3309;SDS011;1667;53.238;10.394;2024-01-15T00:56:27;0.93;;;0.83;;
3309;SDS011;1667;53.238;10.394;2024-01-15T01:01:25;2.97;;;1.27;;
3309;SDS011;1667;53.238;10.394;2024-01-15T01:06:26;5.63;;;1.40;;
3309;SDS011;1667;53.238;10.394;2024-01-15T01:11:29;1.03;;;0.63;;
3309;SDS011;1667;53.238;10.394;2024-01-15T01:16:28;0.60;;;0.60;;
3309;SDS011;1667;53.238;10.394;2024-01-15T01:21:30;2.90;;;0.90;;
3309;SDS011;1667;53.238;10.394;2024-01-15T01:26:29;4.23;;;0.70;;
3309;SDS011;1667;53.238;10.394;2024-01-15T01:31:28;1.47;;;0.77;;
3309;SDS011;1667;53.238;10.394;2024-01-15T01:36:29;6.10;;;0.90;;
3309;SDS011;1667;53.238;10.394;2024-01-15T01:41:30;6.10;;;1.00;;
3309;SDS011;1667;53.238;10.394;2024-01-15T01:46:29;3.30;;;1.43;;
3309;SDS011;1667;53.238;10.394;2024-01-15T01:51:27;20.63;;;1.60;;
3309;SDS011;1667;53.238;10.394;2024-01-15T01:56:28;5.13;;;1.00;;
3309;SDS011;1667;53.238;10.394;2024-01-15T02:01:27;2.20;;;1.03;;
3309;SDS011;1667;53.238;10.394;2024-01-15T02:06:26;5.50;;;1.67;;
3309;SDS011;1667;53.238;10.394;2024-01-15T02:11:27;4.60;;;1.00;;
3309;SDS011;1667;53.238;10.394;2024-01-15T02:16:26;3.80;;;1.13;;
3309;SDS011;1667;53.238;10.394;2024-01-15T02:21:24;2.60;;;0.80;;
3309;SDS011;1667;53.238;10.394;2024-01-15T02:26:27;2.03;;;1.50;;
3309;SDS011;1667;53.238;10.394;2024-01-15T02:31:26;3.20;;;1.07;;
3309;SDS011;1667;53.238;10.394;2024-01-15T02:36:25;1.93;;;0.70;;
3309;SDS011;1667;53.238;10.394;2024-01-15T02:41:24;1.03;;;0.80;;
3309;SDS011;1667;53.238;10.394;2024-01-15T02:46:24;1.30;;;1.03;;
3309;SDS011;1667;53.238;10.394;2024-01-15T02:51:23;7.70;;;2.03;;
3309;SDS011;1667;53.238;10.394;2024-01-15T02:56:22;3.33;;;1.20;;
3309;SDS011;1667;53.238;10.394;2024-01-15T03:01:23;3.47;;;2.00;;
3309;SDS011;1667;53.238;10.394;2024-01-15T03:06:22;4.60;;;1.70;;
3309;SDS011;1667;53.238;10.394;2024-01-15T03:11:21;5.17;;;1.23;;
3309;SDS011;1667;53.238;10.394;2024-01-15T03:16:20;0.83;;;0.83;;
3309;SDS011;1667;53.238;10.394;2024-01-15T03:21:20;1.03;;;0.93;;
3309;SDS011;1667;53.238;10.394;2024-01-15T03:26:20;1.03;;;0.93;;
3309;SDS011;1667;53.238;10.394;2024-01-15T03:31:19;1.70;;;0.87;;
3309;SDS011;1667;53.238;10.394;2024-01-15T03:36:18;2.60;;;1.20;;
3309;SDS011;1667;53.238;10.394;2024-01-15T03:41:18;1.73;;;0.83;;
3309;SDS011;1667;53.238;10.394;2024-01-15T03:46:17;3.20;;;1.60;;
3309;SDS011;1667;53.238;10.394;2024-01-15T03:51:16;1.37;;;0.83;;
3309;SDS011;1667;53.238;10.394;2024-01-15T03:56:17;2.37;;;1.17;;
3309;SDS011;1667;53.238;10.394;2024-01-15T04:01:16;3.57;;;1.67;;
3309;SDS011;1667;53.238;10.394;2024-01-15T04:06:15;3.80;;;1.17;;
3309;SDS011;1667;53.238;10.394;2024-01-15T04:11:15;2.93;;;0.90;;
3309;SDS011;1667;53.238;10.394;2024-01-15T04:16:14;2.40;;;0.80;;
3309;SDS011;1667;53.238;10.394;2024-01-15T04:21:13;1.90;;;0.90;;
3309;SDS011;1667;53.238;10.394;2024-01-15T04:26:12;12.60;;;1.40;;
3309;SDS011;1667;53.238;10.394;2024-01-15T04:31:21;3.90;;;0.80;;
3309;SDS011;1667;53.238;10.394;2024-01-15T04:36:21;2.40;;;1.10;;
3309;SDS011;1667;53.238;10.394;2024-01-15T04:41:20;3.33;;;0.80;;
3309;SDS011;1667;53.238;10.394;2024-01-15T04:46:20;2.70;;;0.70;;
3309;SDS011;1667;53.238;10.394;2024-01-15T04:51:19;3.43;;;1.07;;
3309;SDS011;1667;53.238;10.394;2024-01-15T04:56:19;2.87;;;1.13;;
3309;SDS011;1667;53.238;10.394;2024-01-15T05:01:18;3.40;;;1.33;;
3309;SDS011;1667;53.238;10.394;2024-01-15T05:06:18;9.10;;;1.77;;
3309;SDS011;1667;53.238;10.394;2024-01-15T05:11:17;1.23;;;0.80;;
3309;SDS011;1667;53.238;10.394;2024-01-15T05:16:16;9.33;;;1.70;;
3309;SDS011;1667;53.238;10.394;2024-01-15T05:21:17;6.47;;;1.67;;
3309;SDS011;1667;53.238;10.394;2024-01-15T05:26:16;0.73;;;0.73;;
3309;SDS011;1667;53.238;10.394;2024-01-15T05:31:15;3.60;;;0.73;;
3309;SDS011;1667;53.238;10.394;2024-01-15T05:36:14;4.57;;;2.73;;
3309;SDS011;1667;53.238;10.394;2024-01-15T05:41:15;9.00;;;2.30;;
3309;SDS011;1667;53.238;10.394;2024-01-15T05:46:14;1.57;;;1.30;;
3309;SDS011;1667;53.238;10.394;2024-01-15T05:51:12;2.33;;;1.53;;
3309;SDS011;1667;53.238;10.394;2024-01-15T05:56:11;9.13;;;1.30;;
3309;SDS011;1667;53.238;10.394;2024-01-15T06:01:12;0.80;;;0.80;;
3309;SDS011;1667;53.238;10.394;2024-01-15T06:06:11;12.43;;;2.10;;
3309;SDS011;1667;53.238;10.394;2024-01-15T06:11:10;7.70;;;1.77;;
3309;SDS011;1667;53.238;10.394;2024-01-15T06:16:14;2.43;;;1.17;;
3309;SDS011;1667;53.238;10.394;2024-01-15T06:21:13;2.83;;;1.57;;
3309;SDS011;1667;53.238;10.394;2024-01-15T06:26:12;3.50;;;1.60;;
3309;SDS011;1667;53.238;10.394;2024-01-15T06:31:11;5.57;;;2.03;;
3309;SDS011;1667;53.238;10.394;2024-01-15T06:36:11;6.80;;;1.30;;
3309;SDS011;1667;53.238;10.394;2024-01-15T06:41:10;7.43;;;2.30;;
3309;SDS011;1667;53.238;10.394;2024-01-15T06:46:09;8.03;;;1.90;;
3309;SDS011;1667;53.238;10.394;2024-01-15T06:51:09;3.33;;;1.70;;
3309;SDS011;1667;53.238;10.394;2024-01-15T06:56:09;3.60;;;1.90;;
3309;SDS011;1667;53.238;10.394;2024-01-15T07:01:08;1.20;;;0.90;;
3309;SDS011;1667;53.238;10.394;2024-01-15T07:06:06;2.27;;;0.80;;
3309;SDS011;1667;53.238;10.394;2024-01-15T07:11:05;2.80;;;1.37;;
3309;SDS011;1667;53.238;10.394;2024-01-15T07:16:06;2.40;;;0.93;;
3309;SDS011;1667;53.238;10.394;2024-01-15T07:21:05;1.00;;;0.90;;
3309;SDS011;1667;53.238;10.394;2024-01-15T07:26:03;2.90;;;1.73;;
3309;SDS011;1667;53.238;10.394;2024-01-15T07:31:02;7.50;;;1.23;;
3309;SDS011;1667;53.238;10.394;2024-01-15T07:36:05;8.90;;;1.43;;
3309;SDS011;1667;53.238;10.394;2024-01-15T07:41:03;2.67;;;1.37;;
3309;SDS011;1667;53.238;10.394;2024-01-15T07:46:03;2.73;;;1.30;;
3309;SDS011;1667;53.238;10.394;2024-01-15T07:51:02;1.00;;;0.90;;
3309;SDS011;1667;53.238;10.394;2024-01-15T07:56:04;0.83;;;0.83;;
3309;SDS011;1667;53.238;10.394;2024-01-15T08:01:02;2.13;;;1.27;;
3309;SDS011;1667;53.238;10.394;2024-01-15T08:06:02;0.80;;;0.80;;
3309;SDS011;1667;53.238;10.394;2024-01-15T08:11:01;4.80;;;1.00;;
3309;SDS011;1667;53.238;10.394;2024-01-15T08:16:01;1.20;;;0.63;;
3309;SDS011;1667;53.238;10.394;2024-01-15T08:21:01;0.73;;;0.73;;
3309;SDS011;1667;53.238;10.394;2024-01-15T08:26:00;0.97;;;0.93;;
3309;SDS011;1667;53.238;10.394;2024-01-15T08:30:59;1.27;;;0.83;;
3309;SDS011;1667;53.238;10.394;2024-01-15T08:35:59;1.50;;;0.60;;
3309;SDS011;1667;53.238;10.394;2024-01-15T08:40:58;1.50;;;0.93;;
3309;SDS011;1667;53.238;10.394;2024-01-15T08:45:57;1.00;;;1.00;;
3309;SDS011;1667;53.238;10.394;2024-01-15T08:50:57;1.47;;;0.60;;
3309;SDS011;1667;53.238;10.394;2024-01-15T08:55:58;3.10;;;2.27;;
3309;SDS011;1667;53.238;10.394;2024-01-15T09:00:57;3.30;;;0.70;;
3309;SDS011;1667;53.238;10.394;2024-01-15T09:05:57;0.50;;;0.50;;
3309;SDS011;1667;53.238;10.394;2024-01-15T09:10:56;0.60;;;0.60;;
3309;SDS011;1667;53.238;10.394;2024-01-15T09:16:01;0.77;;;0.77;;
3309;SDS011;1667;53.238;10.394;2024-01-15T09:21:00;1.03;;;0.93;;
3309;SDS011;1667;53.238;10.394;2024-01-15T09:26:03;0.60;;;0.60;;
3309;SDS011;1667;53.238;10.394;2024-01-15T09:31:03;1.00;;;0.73;;
3309;SDS011;1667;53.238;10.394;2024-01-15T09:36:02;0.50;;;0.50;;
3309;SDS011;1667;53.238;10.394;2024-01-15T09:41:03;0.60;;;0.60;;
3309;SDS011;1667;53.238;10.394;2024-01-15T09:46:03;1.47;;;0.73;;
3309;SDS011;1667;53.238;10.394;2024-01-15T09:51:03;1.70;;;0.60;;
3309;SDS011;1667;53.238;10.394;2024-01-15T09:56:06;1.93;;;1.00;;
3309;SDS011;1667;53.238;10.394;2024-01-15T10:01:06;0.90;;;0.67;;
3309;SDS011;1667;53.238;10.394;2024-01-15T10:06:06;0.73;;;0.57;;
3309;SDS011;1667;53.238;10.394;2024-01-15T10:11:08;0.60;;;0.60;;
3309;SDS011;1667;53.238;10.394;2024-01-15T10:16:07;1.87;;;1.10;;
3309;SDS011;1667;53.238;10.394;2024-01-15T10:21:06;0.67;;;0.67;;
3309;SDS011;1667;53.238;10.394;2024-01-15T10:26:06;2.00;;;0.70;;
3309;SDS011;1667;53.238;10.394;2024-01-15T10:31:06;0.77;;;0.77;;
3309;SDS011;1667;53.238;10.394;2024-01-15T10:36:05;0.80;;;0.80;;
3309;SDS011;1667;53.238;10.394;2024-01-15T10:41:10;0.90;;;0.73;;
3309;SDS011;1667;53.238;10.394;2024-01-15T10:46:09;1.33;;;1.20;;
3309;SDS011;1667;53.238;10.394;2024-01-15T10:51:08;3.27;;;1.37;;
3309;SDS011;1667;53.238;10.394;2024-01-15T10:56:10;2.30;;;1.97;;
3309;SDS011;1667;53.238;10.394;2024-01-15T11:01:11;1.67;;;1.57;;
3309;SDS011;1667;53.238;10.394;2024-01-15T11:06:16;1.10;;;1.00;;
3309;SDS011;1667;53.238;10.394;2024-01-15T11:11:18;1.57;;;1.30;;
3309;SDS011;1667;53.238;10.394;2024-01-15T11:16:20;3.13;;;1.60;;
3309;SDS011;1667;53.238;10.394;2024-01-15T11:21:22;1.63;;;1.00;;
3309;SDS011;1667;53.238;10.394;2024-01-15T11:26:30;1.50;;;1.40;;
3309;SDS011;1667;53.238;10.394;2024-01-15T11:37:01;2.00;;;1.80;;
3309;SDS011;1667;53.238;10.394;2024-01-15T11:42:03;3.63;;;1.77;;
3309;SDS011;1667;53.238;10.394;2024-01-15T11:47:03;2.30;;;1.37;;
3309;SDS011;1667;53.238;10.394;2024-01-15T11:52:02;4.63;;;2.70;;
3309;SDS011;1667;53.238;10.394;2024-01-15T11:57:08;2.60;;;2.20;;
3309;SDS011;1667;53.238;10.394;2024-01-15T12:02:12;1.13;;;1.13;;
3309;SDS011;1667;53.238;10.394;2024-01-15T12:07:11;1.53;;;1.43;;
3309;SDS011;1667;53.238;10.394;2024-01-15T12:12:13;1.20;;;1.10;;
3309;SDS011;1667;53.238;10.394;2024-01-15T12:17:19;0.97;;;0.93;;
3309;SDS011;1667;53.238;10.394;2024-01-15T12:22:18;1.03;;;1.00;;
3309;SDS011;1667;53.238;10.394;2024-01-15T12:27:19;3.47;;;1.70;;
3309;SDS011;1667;53.238;10.394;2024-01-15T12:32:19;1.23;;;0.97;;
3309;SDS011;1667;53.238;10.394;2024-01-15T12:37:19;0.77;;;0.67;;
3309;SDS011;1667;53.238;10.394;2024-01-15T12:42:18;3.40;;;1.23;;
3309;SDS011;1667;53.238;10.394;2024-01-15T12:47:17;1.00;;;0.90;;
3309;SDS011;1667;53.238;10.394;2024-01-15T12:52:18;1.10;;;1.00;;
3309;SDS011;1667;53.238;10.394;2024-01-15T12:57:19;1.10;;;1.10;;
3309;SDS011;1667;53.238;10.394;2024-01-15T13:02:18;1.70;;;1.13;;
3309;SDS011;1667;53.238;10.394;2024-01-15T13:07:17;0.90;;;0.90;;
3309;SDS011;1667;53.238;10.394;2024-01-15T13:12:16;0.70;;;0.70;;
3309;SDS011;1667;53.238;10.394;2024-01-15T13:17:16;0.77;;;0.60;;
3309;SDS011;1667;53.238;10.394;2024-01-15T13:22:15;0.90;;;0.60;;
3309;SDS011;1667;53.238;10.394;2024-01-15T13:27:15;1.00;;;0.83;;
3309;SDS011;1667;53.238;10.394;2024-01-15T13:32:14;0.73;;;0.73;;
3309;SDS011;1667;53.238;10.394;2024-01-15T13:37:22;1.43;;;1.10;;
3309;SDS011;1667;53.238;10.394;2024-01-15T13:42:22;1.73;;;0.80;;
3309;SDS011;1667;53.238;10.394;2024-01-15T13:47:22;0.60;;;0.57;;
3309;SDS011;1667;53.238;10.394;2024-01-15T13:52:21;1.70;;;1.30;;
3309;SDS011;1667;53.238;10.394;2024-01-15T13:57:20;0.80;;;0.70;;
3309;SDS011;1667;53.238;10.394;2024-01-15T14:02:21;0.80;;;0.80;;
3309;SDS011;1667;53.238;10.394;2024-01-15T14:07:21;1.17;;;0.60;;
3309;SDS011;1667;53.238;10.394;2024-01-15T14:17:47;0.83;;;0.77;;
3309;SDS011;1667;53.238;10.394;2024-01-15T14:22:47;0.70;;;0.70;;
3309;SDS011;1667;53.238;10.394;2024-01-15T14:27:46;1.03;;;0.70;;
3309;SDS011;1667;53.238;10.394;2024-01-15T14:32:45;1.27;;;1.10;;
3309;SDS011;1667;53.238;10.394;2024-01-15T14:37:46;1.67;;;0.90;;
3309;SDS011;1667;53.238;10.394;2024-01-15T14:42:45;1.47;;;1.37;;
3309;SDS011;1667;53.238;10.394;2024-01-15T14:47:44;4.60;;;2.63;;
3309;SDS011;1667;53.238;10.394;2024-01-15T14:52:43;3.87;;;2.47;;
3309;SDS011;1667;53.238;10.394;2024-01-15T14:57:44;2.33;;;1.50;;
3309;SDS011;1667;53.238;10.394;2024-01-15T15:02:43;1.87;;;1.30;;
3309;SDS011;1667;53.238;10.394;2024-01-15T15:07:42;1.20;;;1.10;;
3309;SDS011;1667;53.238;10.394;2024-01-15T15:12:42;1.90;;;1.10;;
3309;SDS011;1667;53.238;10.394;2024-01-15T15:17:42;1.40;;;1.30;;
3309;SDS011;1667;53.238;10.394;2024-01-15T15:22:41;1.37;;;1.20;;
3309;SDS011;1667;53.238;10.394;2024-01-15T15:27:40;2.00;;;1.70;;
3309;SDS011;1667;53.238;10.394;2024-01-15T15:32:40;1.47;;;1.37;;
3309;SDS011;1667;53.238;10.394;2024-01-15T15:37:40;1.20;;;1.10;;
3309;SDS011;1667;53.238;10.394;2024-01-15T15:49:05;1.67;;;1.50;;
3309;SDS011;1667;53.238;10.394;2024-01-15T15:54:05;0.80;;;0.70;;
3309;SDS011;1667;53.238;10.394;2024-01-15T15:59:04;1.20;;;1.10;;
3309;SDS011;1667;53.238;10.394;2024-01-15T16:04:07;1.00;;;1.00;;
3309;SDS011;1667;53.238;10.394;2024-01-15T16:09:06;1.93;;;1.83;;
3309;SDS011;1667;53.238;10.394;2024-01-15T16:14:07;0.70;;;0.60;;
3309;SDS011;1667;53.238;10.394;2024-01-15T16:19:08;1.00;;;0.90;;
3309;SDS011;1667;53.238;10.394;2024-01-15T16:24:28;1.70;;;1.40;;
3309;SDS011;1667;53.238;10.394;2024-01-15T16:36:35;2.70;;;1.90;;
3309;SDS011;1667;53.238;10.394;2024-01-15T16:41:35;2.37;;;2.00;;
3309;SDS011;1667;53.238;10.394;2024-01-15T16:46:34;1.60;;;1.50;;
3309;SDS011;1667;53.238;10.394;2024-01-15T16:51:33;2.83;;;2.63;;
3309;SDS011;1667;53.238;10.394;2024-01-15T16:56:33;6.40;;;3.93;;
3309;SDS011;1667;53.238;10.394;2024-01-15T17:01:32;4.43;;;3.40;;
3309;SDS011;1667;53.238;10.394;2024-01-15T17:06:31;3.53;;;2.50;;
3309;SDS011;1667;53.238;10.394;2024-01-15T17:11:32;3.13;;;2.60;;
3309;SDS011;1667;53.238;10.394;2024-01-15T17:16:31;4.13;;;2.30;;
3309;SDS011;1667;53.238;10.394;2024-01-15T17:21:30;9.97;;;5.37;;
3309;SDS011;1667;53.238;10.394;2024-01-15T17:26:29;4.67;;;2.20;;
3309;SDS011;1667;53.238;10.394;2024-01-15T17:31:30;2.70;;;2.40;;
3309;SDS011;1667;53.238;10.394;2024-01-15T17:36:28;4.53;;;2.80;;
3309;SDS011;1667;53.238;10.394;2024-01-15T17:41:28;3.50;;;2.77;;
3309;SDS011;1667;53.238;10.394;2024-01-15T17:46:30;5.33;;;3.10;;
3309;SDS011;1667;53.238;10.394;2024-01-15T17:51:29;7.70;;;5.37;;
3309;SDS011;1667;53.238;10.394;2024-01-15T17:56:29;7.40;;;4.27;;
3309;SDS011;1667;53.238;10.394;2024-01-15T18:01:27;11.10;;;3.90;;
3309;SDS011;1667;53.238;10.394;2024-01-15T18:06:28;3.47;;;2.60;;
3309;SDS011;1667;53.238;10.394;2024-01-15T18:11:28;2.90;;;2.67;;
3309;SDS011;1667;53.238;10.394;2024-01-15T18:16:27;7.60;;;4.07;;
3309;SDS011;1667;53.238;10.394;2024-01-15T18:21:27;5.23;;;3.30;;
3309;SDS011;1667;53.238;10.394;2024-01-15T18:32:28;4.93;;;3.03;;
3309;SDS011;1667;53.238;10.394;2024-01-15T18:37:29;4.00;;;3.30;;
3309;SDS011;1667;53.238;10.394;2024-01-15T18:42:28;4.17;;;2.80;;
3309;SDS011;1667;53.238;10.394;2024-01-15T18:47:28;4.43;;;2.17;;
3309;SDS011;1667;53.238;10.394;2024-01-15T18:52:27;3.03;;;2.10;;
3309;SDS011;1667;53.238;10.394;2024-01-15T18:57:27;2.30;;;2.10;;
3309;SDS011;1667;53.238;10.394;2024-01-15T19:02:25;3.50;;;2.73;;
3309;SDS011;1667;53.238;10.394;2024-01-15T19:07:25;3.87;;;2.60;;
3309;SDS011;1667;53.238;10.394;2024-01-15T19:12:24;3.10;;;2.80;;
3309;SDS011;1667;53.238;10.394;2024-01-15T19:17:25;3.77;;;2.20;;
3309;SDS011;1667;53.238;10.394;2024-01-15T19:22:24;7.50;;;2.77;;
3309;SDS011;1667;53.238;10.394;2024-01-15T19:27:23;4.00;;;2.30;;
3309;SDS011;1667;53.238;10.394;2024-01-15T19:32:22;3.90;;;1.80;;
3309;SDS011;1667;53.238;10.394;2024-01-15T19:37:22;1.60;;;1.50;;
3309;SDS011;1667;53.238;10.394;2024-01-15T19:42:22;4.07;;;1.80;;
3309;SDS011;1667;53.238;10.394;2024-01-15T19:47:21;1.63;;;1.53;;
3309;SDS011;1667;53.238;10.394;2024-01-15T19:52:20;2.07;;;1.57;;
3309;SDS011;1667;53.238;10.394;2024-01-15T19:57:21;2.73;;;1.83;;
3309;SDS011;1667;53.238;10.394;2024-01-15T20:02:19;3.60;;;2.37;;
3309;SDS011;1667;53.238;10.394;2024-01-15T20:07:18;2.33;;;1.30;;
3309;SDS011;1667;53.238;10.394;2024-01-15T20:12:19;1.20;;;1.10;;
3309;SDS011;1667;53.238;10.394;2024-01-15T20:17:18;1.97;;;1.03;;
3309;SDS011;1667;53.238;10.394;2024-01-15T20:22:20;1.90;;;1.63;;
3309;SDS011;1667;53.238;10.394;2024-01-15T20:27:21;3.43;;;1.30;;
3309;SDS011;1667;53.238;10.394;2024-01-15T20:32:20;2.83;;;2.10;;
3309;SDS011;1667;53.238;10.394;2024-01-15T20:37:19;1.80;;;1.67;;
3309;SDS011;1667;53.238;10.394;2024-01-15T20:42:18;3.00;;;2.40;;
3309;SDS011;1667;53.238;10.394;2024-01-15T20:47:18;2.97;;;1.37;;
3309;SDS011;1667;53.238;10.394;2024-01-15T20:52:18;3.10;;;2.90;;
3309;SDS011;1667;53.238;10.394;2024-01-15T20:57:22;2.10;;;1.77;;
3309;SDS011;1667;53.238;10.394;2024-01-15T21:02:21;0.90;;;0.87;;
3309;SDS011;1667;53.238;10.394;2024-01-15T21:07:22;2.17;;;1.40;;
3309;SDS011;1667;53.238;10.394;2024-01-15T21:12:23;2.57;;;1.60;;
3309;SDS011;1667;53.238;10.394;2024-01-15T21:17:22;3.20;;;2.97;;
3309;SDS011;1667;53.238;10.394;2024-01-15T21:22:22;3.80;;;2.80;;
3309;SDS011;1667;53.238;10.394;2024-01-15T21:27:22;4.67;;;2.80;;
3309;SDS011;1667;53.238;10.394;2024-01-15T21:39:16;5.60;;;2.17;;
3309;SDS011;1667;53.238;10.394;2024-01-15T21:44:17;3.63;;;2.30;;
3309;SDS011;1667;53.238;10.394;2024-01-15T21:49:16;6.23;;;3.57;;
3309;SDS011;1667;53.238;10.394;2024-01-15T21:54:15;3.53;;;2.40;;
3309;SDS011;1667;53.238;10.394;2024-01-15T21:59:14;3.57;;;2.60;;
3309;SDS011;1667;53.238;10.394;2024-01-15T22:04:15;3.77;;;2.90;;
3309;SDS011;1667;53.238;10.394;2024-01-15T22:09:14;5.83;;;3.80;;
3309;SDS011;1667;53.238;10.394;2024-01-15T22:14:13;4.70;;;3.00;;
3309;SDS011;1667;53.238;10.394;2024-01-15T22:19:12;4.73;;;2.77;;
3309;SDS011;1667;53.238;10.394;2024-01-15T22:24:14;5.23;;;2.37;;
3309;SDS011;1667;53.238;10.394;2024-01-15T22:29:13;3.07;;;1.57;;
3309;SDS011;1667;53.238;10.394;2024-01-15T22:34:11;6.00;;;2.33;;
3309;SDS011;1667;53.238;10.394;2024-01-15T22:39:14;2.30;;;2.10;;
3309;SDS011;1667;53.238;10.394;2024-01-15T22:44:13;3.70;;;3.10;;
3309;SDS011;1667;53.238;10.394;2024-01-15T22:49:12;4.13;;;2.43;;
3309;SDS011;1667;53.238;10.394;2024-01-15T22:54:11;6.53;;;2.90;;
3309;SDS011;1667;53.238;10.394;2024-01-15T22:59:11;8.30;;;5.80;;
3309;SDS011;1667;53.238;10.394;2024-01-15T23:04:14;11.33;;;4.10;;
3309;SDS011;1667;53.238;10.394;2024-01-15T23:09:13;3.73;;;3.33;;
3309;SDS011;1667;53.238;10.394;2024-01-15T23:14:14;4.00;;;3.60;;
3309;SDS011;1667;53.238;10.394;2024-01-15T23:19:13;2.77;;;2.57;;
3309;SDS011;1667;53.238;10.394;2024-01-15T23:24:12;3.47;;;2.57;;
3309;SDS011;1667;53.238;10.394;2024-01-15T23:29:11;3.87;;;2.57;;
3309;SDS011;1667;53.238;10.394;2024-01-15T23:34:11;4.57;;;3.10;;
3309;SDS011;1667;53.238;10.394;2024-01-15T23:39:10;3.27;;;2.97;;
3309;SDS011;1667;53.238;10.394;2024-01-15T23:44:10;3.37;;;3.07;;
3309;SDS011;1667;53.238;10.394;2024-01-15T23:49:09;5.77;;;3.20;;
3309;SDS011;1667;53.238;10.394;2024-01-15T23:54:10;7.43;;;3.23;;
3309;SDS011;1667;53.238;10.394;2024-01-15T23:59:09;4.13;;;3.37;;
